Time;durP1;ratioP1;P1;durP2;ratioP2;P2;SDS_P1;SDS_P2;PMS_P1;PMS_P2;Temp;Humidity;BMP_temperature;BMP_pressure;BME280_temperature;BME280_humidity;BME280_pressure;Samples;Min_cycle;Max_cycle;Signal;HPM_P1;HPM_P2
2023/12/10 00:02:03;;;;;;;0.77;0.77;;;9.90;99.90;;;;;;5055282;28;20308;-83
2023/12/10 00:04:29;;;;;;;4.83;2.17;;;10.00;99.90;;;;;;5036990;28;20664;-83
2023/12/10 00:06:55;;;;;;;13.40;1.53;;;10.00;99.90;;;;;;5037328;28;20268;-83
2023/12/10 00:09:21;;;;;;;0.10;0.10;;;10.00;99.90;;;;;;5037060;28;20222;-83
2023/12/10 00:11:47;;;;;;;13.97;1.73;;;10.00;99.90;;;;;;5036809;28;20234;-83
2023/12/10 00:14:14;;;;;;;3.17;1.13;;;10.00;99.90;;;;;;5037608;28;20206;-83
2023/12/10 00:16:40;;;;;;;4.53;3.50;;;10.00;99.90;;;;;;5053604;28;20225;-82
2023/12/10 00:19:05;;;;;;;1.30;1.20;;;10.00;99.90;;;;;;5036876;28;20674;-84
2023/12/10 00:21:31;;;;;;;0.30;0.30;;;10.00;99.90;;;;;;5036832;28;20217;-83
2023/12/10 00:23:57;;;;;;;1.13;1.13;;;10.00;99.90;;;;;;5054539;28;20206;-83
2023/12/10 00:26:23;;;;;;;3.17;0.80;;;9.90;99.90;;;;;;5037263;28;20182;-83
2023/12/10 00:28:48;;;;;;;0.43;0.43;;;10.00;99.90;;;;;;5037105;28;20674;-84
2023/12/10 00:31:14;;;;;;;0.77;0.73;;;9.90;99.90;;;;;;5054409;28;20678;-83
2023/12/10 00:33:40;;;;;;;2.43;1.67;;;9.90;99.90;;;;;;5036936;28;20224;-83
2023/12/10 00:36:06;;;;;;;0.77;0.77;;;9.90;99.90;;;;;;5052801;28;20221;-83
2023/12/10 00:38:32;;;;;;;1.80;1.70;;;9.90;99.90;;;;;;5054005;28;20185;-83
2023/12/10 00:40:57;;;;;;;1.27;1.17;;;9.90;99.90;;;;;;5036302;28;20293;-84
2023/12/10 00:43:23;;;;;;;0.23;0.23;;;9.80;99.90;;;;;;5036599;28;20229;-83
2023/12/10 00:45:49;;;;;;;5.30;1.10;;;9.80;99.90;;;;;;5020018;28;20244;-85
2023/12/10 00:48:15;;;;;;;2.13;1.23;;;9.70;99.90;;;;;;5036058;28;20275;-84
2023/12/10 00:50:40;;;;;;;0.80;0.80;;;9.60;99.90;;;;;;5020196;28;20182;-84
2023/12/10 00:53:06;;;;;;;0.67;0.50;;;9.70;99.90;;;;;;5036503;28;20275;-83
2023/12/10 00:55:32;;;;;;;4.50;1.47;;;9.50;99.90;;;;;;5036254;28;20284;-84
2023/12/10 00:57:57;;;;;;;0.97;0.90;;;9.60;99.90;;;;;;5036151;28;20589;-83
2023/12/10 01:00:23;;;;;;;3.93;1.77;;;9.50;99.90;;;;;;5054221;28;20241;-83
2023/12/10 01:02:49;;;;;;;10.90;0.87;;;9.40;99.90;;;;;;5019484;28;20188;-85
2023/12/10 01:05:15;;;;;;;6.67;2.40;;;9.50;99.90;;;;;;5053143;28;20205;-84
2023/12/10 01:07:41;;;;;;;11.73;0.87;;;9.40;99.90;;;;;;5019668;28;20218;-84
2023/12/10 01:10:07;;;;;;;1.77;1.63;;;9.40;99.90;;;;;;5035956;28;20692;-83
2023/12/10 01:12:36;;;;;;;0.97;0.97;;;9.40;99.90;;;;;;5052112;28;20230;-83
2023/12/10 01:15:05;;;;;;;0.60;0.60;;;9.40;99.90;;;;;;5035550;28;20645;-84
2023/12/10 01:17:31;;;;;;;0.83;0.70;;;9.30;99.90;;;;;;5036381;28;20174;-84
2023/12/10 01:19:59;;;;;;;0.57;0.57;;;9.30;99.90;;;;;;5036283;28;20218;-84
2023/12/10 01:22:24;;;;;;;4.13;1.70;;;9.40;99.90;;;;;;5035431;28;20300;-84
2023/12/10 01:24:52;;;;;;;12.40;0.87;;;9.30;99.90;;;;;;5035625;28;20693;-83
2023/12/10 01:27:18;;;;;;;0.43;0.40;;;9.30;99.90;;;;;;5035650;28;20221;-83
2023/12/10 01:29:44;;;;;;;0.20;0.20;;;9.30;99.90;;;;;;5035629;28;20186;-83
2023/12/10 01:32:10;;;;;;;5.77;2.53;;;9.30;99.90;;;;;;5036149;28;20224;-89
2023/12/10 01:34:37;;;;;;;3.60;1.03;;;9.30;99.90;;;;;;5037269;28;20655;-91
2023/12/10 01:37:03;;;;;;;3.50;0.83;;;9.20;99.90;;;;;;5036820;28;20240;-90
2023/12/10 01:39:32;;;;;;;1.40;0.47;;;9.30;99.90;;;;;;5037137;28;20213;-90
2023/12/10 01:41:58;;;;;;;8.70;1.20;;;9.30;99.90;;;;;;5036803;28;20185;-91
2023/12/10 01:44:24;;;;;;;1.67;1.57;;;9.40;99.90;;;;;;5037565;28;20267;-92
2023/12/10 01:46:50;;;;;;;0.93;0.93;;;9.40;99.90;;;;;;5037039;28;20604;-92
2023/12/10 01:49:16;;;;;;;0.20;0.20;;;9.30;99.90;;;;;;5053284;28;20352;-92
2023/12/10 01:51:44;;;;;;;0.63;0.63;;;9.30;99.90;;;;;;5019798;28;20263;-92
2023/12/10 01:54:21;;;;;;;3.27;1.37;;;9.30;99.90;;;;;;5035863;28;20226;-92
2023/12/10 01:56:50;;;;;;;0.17;0.17;;;9.30;99.90;;;;;;5036669;28;20181;-93
2023/12/10 01:59:20;;;;;;;1.70;1.60;;;9.40;99.90;;;;;;5037161;28;20197;-92
2023/12/10 02:01:46;;;;;;;1.07;1.07;;;9.40;99.90;;;;;;5036066;28;20214;-92
2023/12/10 02:04:15;;;;;;;0.20;0.20;;;9.30;99.90;;;;;;5036147;28;20221;-89
2023/12/10 02:06:42;;;;;;;0.20;0.20;;;9.50;99.90;;;;;;5052756;28;20218;-92
2023/12/10 02:09:13;;;;;;;0.80;0.57;;;9.30;99.90;;;;;;5052727;28;20262;-92
2023/12/10 02:11:42;;;;;;;6.07;0.93;;;9.50;99.90;;;;;;5036721;28;20241;-92
2023/12/10 02:14:08;;;;;;;1.40;1.07;;;9.30;99.90;;;;;;5036130;28;20253;-92
2023/12/10 02:16:34;;;;;;;1.17;1.13;;;9.40;99.90;;;;;;5019611;28;20233;-94
2023/12/10 02:19:00;;;;;;;5.43;1.13;;;9.30;99.90;;;;;;5052837;28;20221;-94
2023/12/10 02:21:30;;;;;;;7.60;0.97;;;9.50;99.90;;;;;;5036416;28;20287;-94
2023/12/10 02:24:10;;;;;;;2.77;2.27;;;9.40;99.90;;;;;;5036257;28;20279;-90
2023/12/10 02:26:37;;;;;;;11.33;1.20;;;9.40;99.90;;;;;;5036831;28;20252;-90
2023/12/10 02:29:04;;;;;;;0.70;0.70;;;9.30;99.90;;;;;;5035953;28;20293;-93
2023/12/10 02:31:30;;;;;;;0.60;0.60;;;9.30;99.90;;;;;;5052295;28;20210;-92
2023/12/10 02:33:56;;;;;;;2.23;1.07;;;9.40;99.90;;;;;;5035586;28;20233;-92
2023/12/10 02:36:22;;;;;;;2.00;1.90;;;9.40;99.90;;;;;;5035939;28;20210;-91
2023/12/10 02:38:49;;;;;;;1.33;0.33;;;9.30;99.90;;;;;;5052441;28;20186;-90
2023/12/10 02:41:15;;;;;;;0.57;0.57;;;9.40;99.90;;;;;;5036502;28;20208;-91
2023/12/10 02:43:41;;;;;;;1.80;1.70;;;9.40;99.90;;;;;;5035737;28;20706;-90
2023/12/10 02:46:07;;;;;;;0.50;0.50;;;9.40;99.90;;;;;;5053936;28;20252;-90
2023/12/10 02:48:33;;;;;;;0.40;0.40;;;9.30;99.90;;;;;;5035894;28;20217;-88
2023/12/10 02:50:58;;;;;;;1.40;0.40;;;9.50;99.90;;;;;;5035343;28;20606;-90
2023/12/10 02:53:24;;;;;;;1.07;0.37;;;9.30;99.90;;;;;;5035902;28;20193;-88
2023/12/10 02:55:51;;;;;;;0.47;0.47;;;9.30;99.90;;;;;;5035839;28;20237;-89
2023/12/10 02:58:17;;;;;;;10.70;1.73;;;9.50;99.90;;;;;;5035920;28;20222;-90
2023/12/10 03:00:43;;;;;;;0.33;0.33;;;9.30;99.90;;;;;;5019290;28;20217;-90
2023/12/10 03:03:09;;;;;;;3.37;1.77;;;9.40;99.90;;;;;;5035607;28;20240;-89
2023/12/10 03:05:35;;;;;;;1.20;1.10;;;9.40;99.90;;;;;;5019180;28;20205;-89
2023/12/10 03:08:01;;;;;;;0.30;0.30;;;9.50;99.90;;;;;;5035401;28;20220;-90
2023/12/10 03:10:27;;;;;;;1.90;1.23;;;9.50;99.90;;;;;;5019108;28;20217;-93
2023/12/10 03:12:52;;;;;;;3.50;1.27;;;9.40;99.90;;;;;;5035456;28;20233;-91
2023/12/10 03:15:18;;;;;;;1.13;1.00;;;9.50;99.90;;;;;;5019536;28;20312;-88
2023/12/10 03:17:44;;;;;;;5.43;1.23;;;9.50;99.90;;;;;;5035363;28;20189;-89
2023/12/10 03:20:12;;;;;;;0.20;0.20;;;9.40;99.90;;;;;;5019962;28;20244;-90
2023/12/10 03:22:38;;;;;;;0.47;0.40;;;9.60;99.90;;;;;;5035588;28;20221;-90
2023/12/10 03:25:04;;;;;;;0.97;0.90;;;9.50;99.90;;;;;;5035482;28;20666;-90
2023/12/10 03:27:30;;;;;;;0.53;0.53;;;9.50;99.90;;;;;;5035373;28;20210;-88
2023/12/10 03:29:56;;;;;;;1.97;1.87;;;9.50;99.90;;;;;;5018946;28;20201;-91
2023/12/10 03:32:22;;;;;;;0.47;0.47;;;9.50;99.90;;;;;;5036125;28;20174;-89
2023/12/10 03:34:47;;;;;;;0.77;0.77;;;9.60;99.90;;;;;;5035254;28;20233;-89
2023/12/10 03:37:13;;;;;;;0.20;0.20;;;9.70;99.90;;;;;;5019298;28;20665;-88
2023/12/10 03:39:39;;;;;;;2.10;0.50;;;9.70;99.90;;;;;;5035149;28;20289;-90
2023/12/10 03:42:05;;;;;;;1.53;1.53;;;9.70;99.90;;;;;;5018719;28;20221;-89
2023/12/10 03:44:32;;;;;;;0.40;0.40;;;9.80;99.90;;;;;;5052397;28;20232;-88
2023/12/10 03:47:02;;;;;;;8.67;0.93;;;9.80;99.90;;;;;;5034683;28;20304;-90
2023/12/10 03:49:28;;;;;;;1.60;0.93;;;9.80;99.90;;;;;;5034701;28;20224;-88
2023/12/10 03:51:58;;;;;;;0.73;0.53;;;9.70;99.90;;;;;;5052533;28;20224;-89
2023/12/10 03:54:24;;;;;;;6.60;0.67;;;9.80;99.90;;;;;;5051468;28;20230;-92
2023/12/10 03:56:50;;;;;;;2.40;0.57;;;9.70;99.90;;;;;;5035589;28;20186;-91
2023/12/10 03:59:15;;;;;;;0.47;0.33;;;9.60;99.90;;;;;;5035667;28;20679;-88
2023/12/10 04:01:42;;;;;;;0.77;0.60;;;9.60;99.90;;;;;;5051504;28;20245;-89
2023/12/10 04:04:09;;;;;;;2.27;0.37;;;9.60;99.90;;;;;;5052299;28;20691;-89
2023/12/10 04:06:39;;;;;;;0.50;0.50;;;9.70;99.90;;;;;;5052337;28;20249;-91
2023/12/10 04:09:06;;;;;;;1.27;0.37;;;9.60;99.90;;;;;;5034844;28;20242;-88
2023/12/10 04:11:32;;;;;;;1.60;0.83;;;9.60;99.90;;;;;;5035076;28;20238;-91
2023/12/10 04:13:58;;;;;;;2.03;0.77;;;9.50;99.90;;;;;;5052005;28;20241;-91
2023/12/10 04:16:26;;;;;;;8.03;1.53;;;9.60;99.90;;;;;;5036823;28;20218;-92
2023/12/10 04:18:51;;;;;;;1.00;1.00;;;9.60;99.90;;;;;;5038318;28;20217;-92
2023/12/10 04:21:22;;;;;;;1.40;0.27;;;9.50;99.90;;;;;;5055174;28;20221;-91
2023/12/10 04:23:48;;;;;;;0.87;0.87;;;9.50;99.90;;;;;;5039198;28;20170;-90
2023/12/10 04:26:14;;;;;;;6.93;1.87;;;9.60;99.90;;;;;;5023925;28;20185;-90
2023/12/10 04:28:40;;;;;;;0.40;0.40;;;9.70;99.90;;;;;;5038635;28;20305;-92
2023/12/10 04:31:06;;;;;;;1.60;0.30;;;9.60;99.90;;;;;;5038314;28;20218;-91
2023/12/10 04:33:33;;;;;;;10.93;1.67;;;9.70;99.90;;;;;;5038070;28;20672;-90
2023/12/10 04:35:59;;;;;;;1.30;1.30;;;9.70;99.90;;;;;;5038388;28;20650;-92
2023/12/10 04:38:25;;;;;;;0.63;0.53;;;9.80;99.90;;;;;;5039165;28;20323;-92
2023/12/10 04:40:51;;;;;;;0.10;0.10;;;9.60;99.90;;;;;;5056444;28;20654;-91
2023/12/10 04:43:17;;;;;;;1.90;1.73;;;9.80;99.90;;;;;;5056507;28;20267;-89
2023/12/10 04:45:43;;;;;;;4.90;1.03;;;9.80;99.90;;;;;;5039531;28;20686;-92
2023/12/10 04:48:11;;;;;;;3.10;1.70;;;9.70;99.90;;;;;;5038412;28;20221;-93
2023/12/10 04:50:36;;;;;;;0.50;0.40;;;9.80;99.90;;;;;;5038471;28;20259;-90
2023/12/10 04:53:02;;;;;;;0.53;0.47;;;9.70;99.90;;;;;;5054201;28;20221;-92
2023/12/10 04:55:28;;;;;;;0.40;0.40;;;9.70;99.90;;;;;;5037674;28;20234;-92
2023/12/10 04:57:54;;;;;;;0.40;0.40;;;9.60;99.90;;;;;;5037950;28;20222;-91
2023/12/10 05:00:20;;;;;;;0.20;0.20;;;9.50;99.90;;;;;;5038086;28;20660;-90
2023/12/10 05:02:45;;;;;;;0.40;0.40;;;9.60;99.90;;;;;;5021184;28;20178;-92
2023/12/10 05:05:12;;;;;;;0.10;0.10;;;9.60;99.90;;;;;;5038802;28;20174;-90
2023/12/10 05:07:38;;;;;;;3.73;0.40;;;9.50;99.90;;;;;;5038254;28;20263;-92
2023/12/10 05:10:05;;;;;;;1.17;0.90;;;9.50;99.90;;;;;;5037647;28;20670;-91
2023/12/10 05:12:31;;;;;;;1.23;0.83;;;9.50;99.90;;;;;;5037506;28;20233;-90
2023/12/10 05:14:57;;;;;;;0.10;0.10;;;9.50;99.90;;;;;;5037486;28;20209;-91
2023/12/10 05:17:23;;;;;;;0.30;0.30;;;9.40;99.90;;;;;;5054493;28;20243;-92
2023/12/10 05:19:49;;;;;;;0.40;0.40;;;9.50;99.90;;;;;;5037598;28;20224;-93
2023/12/10 05:22:15;;;;;;;0.53;0.53;;;9.50;99.90;;;;;;5053750;28;20217;-92
2023/12/10 05:24:41;;;;;;;0.53;0.53;;;9.40;99.90;;;;;;5053835;28;20225;-94
2023/12/10 05:27:08;;;;;;;2.67;2.43;;;9.50;99.90;;;;;;5037273;28;20632;-94
2023/12/10 05:29:34;;;;;;;0.77;0.30;;;9.60;99.90;;;;;;5037850;28;20171;-92
2023/12/10 05:32:00;;;;;;;3.47;2.03;;;9.50;99.90;;;;;;5053826;28;20275;-91
2023/12/10 05:34:25;;;;;;;0.20;0.20;;;9.50;99.90;;;;;;5053402;28;20254;-92
2023/12/10 05:36:51;;;;;;;2.87;1.30;;;9.60;99.90;;;;;;5053109;28;20217;-93
2023/12/10 05:39:17;;;;;;;0.30;0.30;;;9.70;99.90;;;;;;5037090;28;20221;-93
2023/12/10 05:41:43;;;;;;;0.20;0.20;;;9.50;99.90;;;;;;5038086;28;20178;-92
2023/12/10 05:44:09;;;;;;;0.20;0.20;;;9.60;99.90;;;;;;5037356;28;20603;-92
2023/12/10 05:46:35;;;;;;;0.57;0.53;;;9.70;99.90;;;;;;5036629;28;20282;-92
2023/12/10 05:49:01;;;;;;;1.80;1.70;;;9.70;99.90;;;;;;5036331;28;20221;-91
2023/12/10 05:51:27;;;;;;;0.60;0.60;;;9.60;99.90;;;;;;5053029;28;20213;-92
2023/12/10 05:53:56;;;;;;;0.30;0.30;;;9.70;99.90;;;;;;5043043;28;20275;-93
2023/12/10 05:56:22;;;;;;;0.53;0.53;;;9.60;99.90;;;;;;5037030;28;20577;-92
2023/12/10 05:58:48;;;;;;;0.30;0.20;;;9.50;99.90;;;;;;5054336;28;20222;-93
2023/12/10 06:01:14;;;;;;;0.70;0.50;;;9.50;99.90;;;;;;5053834;28;20221;-92
2023/12/10 06:03:40;;;;;;;0.17;0.17;;;9.50;99.90;;;;;;5036188;28;20213;-91
2023/12/10 06:06:07;;;;;;;1.87;0.60;;;9.70;99.90;;;;;;5036005;28;20282;-93
2023/12/10 06:08:32;;;;;;;2.53;0.73;;;9.70;99.90;;;;;;5053151;28;20182;-92
2023/12/10 06:10:58;;;;;;;1.50;1.30;;;9.50;99.90;;;;;;5036625;28;20221;-93
2023/12/10 06:13:24;;;;;;;0.30;0.30;;;9.70;99.90;;;;;;5053742;28;20744;-93
2023/12/10 06:15:50;;;;;;;0.97;0.83;;;9.50;99.90;;;;;;5036478;28;20250;-91
2023/12/10 06:18:16;;;;;;;0.20;0.20;;;9.60;99.90;;;;;;5036168;28;20272;-93
2023/12/10 06:20:42;;;;;;;2.80;1.83;;;9.60;99.90;;;;;;5053922;28;20634;-92
2023/12/10 06:23:08;;;;;;;1.07;0.57;;;9.50;99.90;;;;;;5017107;28;20202;-92
2023/12/10 06:25:34;;;;;;;0.77;0.77;;;9.60;99.90;;;;;;4999985;28;20617;-93
2023/12/10 06:27:59;;;;;;;1.37;0.63;;;9.70;99.90;;;;;;5016401;28;20225;-92
2023/12/10 06:30:25;;;;;;;1.80;1.17;;;9.70;99.90;;;;;;5016320;28;20225;-92
2023/12/10 06:32:51;;;;;;;0.30;0.30;;;9.70;99.90;;;;;;5000060;28;20229;-93
2023/12/10 06:35:17;;;;;;;10.20;0.77;;;9.80;99.90;;;;;;5000345;28;20211;-91
2023/12/10 06:37:43;;;;;;;0.97;0.97;;;9.80;99.90;;;;;;5016310;28;20242;-93
2023/12/10 06:40:10;;;;;;;0.30;0.30;;;9.80;99.90;;;;;;4998841;28;20301;-91
2023/12/10 06:42:36;;;;;;;3.40;0.97;;;9.70;99.90;;;;;;5019940;28;20273;-93
2023/12/10 06:45:05;;;;;;;4.47;1.47;;;9.70;99.90;;;;;;5032814;28;20182;-90
2023/12/10 06:47:31;;;;;;;12.53;0.63;;;9.70;99.90;;;;;;5016960;28;20603;-91
2023/12/10 06:49:57;;;;;;;7.93;1.67;;;9.70;99.90;;;;;;5032156;28;20229;-93
2023/12/10 06:52:22;;;;;;;2.97;0.63;;;9.60;99.90;;;;;;5032168;28;20704;-92
2023/12/10 06:54:48;;;;;;;0.27;0.27;;;9.60;99.90;;;;;;5016019;28;20238;-93
2023/12/10 06:57:14;;;;;;;0.10;0.10;;;9.60;99.90;;;;;;5016387;28;20217;-93
2023/12/10 06:59:40;;;;;;;1.60;0.60;;;9.50;99.90;;;;;;5033336;28;20634;-92
2023/12/10 07:02:06;;;;;;;0.20;0.20;;;9.50;99.90;;;;;;5016140;28;20218;-93
2023/12/10 07:04:33;;;;;;;0.90;0.90;;;9.50;99.90;;;;;;5000107;28;20301;-93
2023/12/10 07:06:58;;;;;;;0.10;0.10;;;9.60;99.90;;;;;;4999820;28;20671;-93
2023/12/10 07:09:24;;;;;;;0.30;0.30;;;9.50;99.90;;;;;;5015630;28;20210;-93
2023/12/10 07:11:51;;;;;;;0.17;0.17;;;9.60;99.90;;;;;;5015751;28;20287;-93
2023/12/10 07:14:16;;;;;;;0.20;0.20;;;9.60;99.90;;;;;;5016993;28;20218;-92
2023/12/10 07:16:42;;;;;;;1.37;1.27;;;9.50;99.90;;;;;;5034502;28;20581;-94
2023/12/10 07:19:11;;;;;;;0.30;0.30;;;9.60;99.90;;;;;;5034816;28;20571;-93
2023/12/10 07:21:37;;;;;;;0.93;0.93;;;9.60;99.90;;;;;;5032518;28;20238;-92
2023/12/10 07:24:04;;;;;;;2.97;1.83;;;9.60;99.90;;;;;;5032687;28;20273;-93
2023/12/10 07:26:30;;;;;;;0.73;0.70;;;9.70;99.90;;;;;;5033321;28;20685;-91
2023/12/10 07:28:56;;;;;;;0.50;0.50;;;9.60;99.90;;;;;;4999105;28;20218;-93
2023/12/10 07:31:22;;;;;;;0.60;0.60;;;9.50;99.90;;;;;;5032739;28;20225;-92
2023/12/10 07:33:48;;;;;;;0.83;0.60;;;9.60;99.90;;;;;;5032486;28;20248;-92
2023/12/10 07:36:14;;;;;;;0.30;0.30;;;9.50;99.90;;;;;;5015786;28;20293;-89
2023/12/10 07:38:40;;;;;;;0.30;0.30;;;9.50;99.90;;;;;;5032436;28;20171;-90
2023/12/10 07:41:06;;;;;;;0.17;0.17;;;9.60;99.90;;;;;;5031656;28;20268;-90
2023/12/10 07:43:32;;;;;;;0.33;0.33;;;9.60;99.90;;;;;;5033054;28;20218;-89
2023/12/10 07:45:58;;;;;;;0.67;0.67;;;9.60;99.90;;;;;;5031523;28;20218;-90
2023/12/10 07:48:25;;;;;;;1.50;0.90;;;9.60;99.90;;;;;;5031030;28;20211;-90
2023/12/10 07:50:51;;;;;;;2.23;1.07;;;9.50;99.90;;;;;;5017564;28;20182;-91
2023/12/10 07:53:17;;;;;;;8.90;0.90;;;9.50;99.90;;;;;;5036399;28;20201;-90
2023/12/10 07:55:44;;;;;;;0.87;0.30;;;9.50;99.90;;;;;;5036050;28;20663;-89
2023/12/10 07:58:10;;;;;;;0.70;0.70;;;9.60;99.90;;;;;;5035982;28;20218;-88
2023/12/10 08:00:35;;;;;;;0.50;0.50;;;9.40;99.90;;;;;;5018814;28;20298;-88
2023/12/10 08:03:03;;;;;;;0.30;0.30;;;9.50;99.90;;;;;;5035897;28;20174;-90
2023/12/10 08:05:29;;;;;;;0.20;0.20;;;9.40;99.90;;;;;;5036872;28;20193;-90
2023/12/10 08:07:58;;;;;;;0.37;0.30;;;9.50;99.90;;;;;;5036012;28;20222;-92
2023/12/10 08:10:24;;;;;;;4.63;1.17;;;9.40;99.90;;;;;;5035554;28;20215;-91
2023/12/10 08:12:50;;;;;;;0.97;0.33;;;9.60;99.90;;;;;;5035012;28;20709;-90
2023/12/10 08:15:16;;;;;;;0.53;0.53;;;9.60;99.90;;;;;;5002529;28;20229;-90
2023/12/10 08:17:41;;;;;;;4.20;3.60;;;9.50;99.90;;;;;;5023976;28;20193;-93
2023/12/10 08:20:08;;;;;;;2.27;1.27;;;9.60;99.90;;;;;;5008945;28;20211;-89
2023/12/10 08:22:33;;;;;;;0.20;0.20;;;9.60;99.90;;;;;;5039776;28;20663;-92
2023/12/10 08:24:59;;;;;;;0.83;0.83;;;9.60;99.90;;;;;;5035723;28;20217;-91
2023/12/10 08:27:25;;;;;;;1.40;0.60;;;9.60;99.90;;;;;;5019190;28;20214;-92
2023/12/10 08:29:51;;;;;;;3.63;1.17;;;9.50;99.90;;;;;;5029803;28;20182;-92
2023/12/10 08:32:16;;;;;;;0.83;0.53;;;9.60;99.90;;;;;;5034999;28;20206;-92
2023/12/10 08:34:42;;;;;;;2.00;1.37;;;9.50;99.90;;;;;;5026436;28;20222;-91
2023/12/10 08:37:08;;;;;;;0.70;0.70;;;9.50;99.90;;;;;;5021910;28;20211;-90
2023/12/10 08:39:34;;;;;;;2.20;2.10;;;9.60;99.90;;;;;;5009078;28;20293;-90
2023/12/10 08:42:00;;;;;;;0.10;0.10;;;9.40;99.90;;;;;;5022206;28;20195;-90
2023/12/10 08:44:25;;;;;;;0.13;0.13;;;9.50;99.90;;;;;;5002733;28;20183;-90
2023/12/10 08:46:53;;;;;;;7.30;2.43;;;9.50;99.90;;;;;;5018599;28;20211;-91
2023/12/10 08:49:19;;;;;;;0.90;0.90;;;9.50;99.90;;;;;;5035073;28;20214;-94
2023/12/10 08:51:44;;;;;;;15.17;1.03;;;9.50;99.90;;;;;;5018274;28;20225;-91
2023/12/10 08:54:10;;;;;;;1.80;0.33;;;9.50;99.90;;;;;;5001824;28;20223;-93
2023/12/10 08:56:37;;;;;;;0.30;0.30;;;9.50;99.90;;;;;;5051911;28;20182;-93
2023/12/10 08:59:03;;;;;;;1.23;0.57;;;9.60;99.90;;;;;;5036160;28;20210;-92
2023/12/10 09:01:29;;;;;;;0.10;0.10;;;9.50;99.90;;;;;;5018020;28;20214;-91
2023/12/10 09:03:55;;;;;;;0.30;0.30;;;9.50;99.90;;;;;;5036728;28;20214;-93
2023/12/10 09:06:21;;;;;;;6.53;0.87;;;9.60;99.90;;;;;;5013170;28;20227;-92
2023/12/10 09:08:47;;;;;;;0.30;0.30;;;9.50;99.90;;;;;;5035044;28;20183;-94
2023/12/10 09:11:14;;;;;;;1.60;1.33;;;9.60;99.90;;;;;;5035629;28;20175;-93
2023/12/10 09:13:42;;;;;;;13.03;1.43;;;9.60;99.90;;;;;;5037953;28;20228;-93
2023/12/10 09:16:08;;;;;;;1.03;0.33;;;9.70;99.90;;;;;;5038819;28;20252;-93
2023/12/10 09:18:36;;;;;;;0.47;0.47;;;9.60;99.90;;;;;;5038171;28;20251;-94
2023/12/10 09:21:02;;;;;;;0.67;0.37;;;9.60;99.90;;;;;;5037524;28;20269;-93
2023/12/10 09:23:28;;;;;;;1.33;1.03;;;9.60;99.90;;;;;;5038087;28;20170;-91
2023/12/10 09:25:54;;;;;;;0.20;0.20;;;9.50;99.90;;;;;;5037534;28;20225;-92
2023/12/10 09:28:20;;;;;;;7.30;1.43;;;9.60;99.90;;;;;;5037101;28;20662;-93
2023/12/10 09:30:45;;;;;;;0.17;0.17;;;9.50;99.90;;;;;;5037173;28;20268;-92
2023/12/10 09:33:11;;;;;;;0.40;0.40;;;9.60;99.90;;;;;;5003849;28;20213;-93
2023/12/10 09:35:37;;;;;;;0.60;0.60;;;9.60;99.90;;;;;;5038083;28;20233;-91
2023/12/10 09:38:03;;;;;;;0.20;0.20;;;9.80;99.90;;;;;;5036704;28;20279;-92
2023/12/10 09:40:31;;;;;;;0.80;0.80;;;9.80;99.90;;;;;;5036860;28;20218;-93
2023/12/10 09:43:01;;;;;;;1.53;0.90;;;9.80;99.90;;;;;;5036907;28;20233;-92
2023/12/10 09:45:28;;;;;;;5.87;1.37;;;9.70;99.90;;;;;;5036803;28;20677;-93
2023/12/10 09:47:54;;;;;;;0.90;0.87;;;9.70;99.90;;;;;;5036711;28;20250;-92
2023/12/10 09:50:23;;;;;;;0.60;0.60;;;9.60;99.90;;;;;;5055000;28;20213;-90
2023/12/10 09:52:49;;;;;;;0.40;0.40;;;9.70;99.90;;;;;;5020482;28;20249;-90
2023/12/10 09:55:17;;;;;;;0.73;0.73;;;9.70;99.90;;;;;;5036962;28;20249;-88
2023/12/10 09:57:43;;;;;;;8.67;0.97;;;9.70;99.90;;;;;;5037690;28;20288;-91
2023/12/10 10:00:10;;;;;;;2.40;2.30;;;9.70;99.90;;;;;;5037537;28;20600;-89
2023/12/10 10:02:36;;;;;;;1.73;0.97;;;9.80;99.90;;;;;;5038322;28;20257;-89
2023/12/10 10:05:05;;;;;;;0.40;0.40;;;9.70;99.90;;;;;;5054535;28;20313;-90
2023/12/10 10:07:31;;;;;;;1.17;1.00;;;9.70;99.90;;;;;;5036429;28;20225;-89
2023/12/10 10:09:57;;;;;;;0.30;0.30;;;9.80;99.90;;;;;;5036290;28;20213;-91
2023/12/10 10:12:30;;;;;;;0.10;0.10;;;9.80;99.90;;;;;;5036002;28;20355;-91
2023/12/10 10:14:59;;;;;;;0.50;0.50;;;9.60;99.90;;;;;;5002528;28;20272;-91
2023/12/10 10:17:27;;;;;;;0.23;0.23;;;9.60;99.90;;;;;;5020444;28;20184;-89
2023/12/10 10:19:57;;;;;;;8.57;1.53;;;9.80;99.90;;;;;;5053808;28;20218;-92
2023/12/10 10:22:27;;;;;;;4.23;0.53;;;9.80;99.90;;;;;;5020205;28;20214;-90
2023/12/10 10:24:53;;;;;;;0.93;0.93;;;9.90;99.90;;;;;;5036207;28;20225;-89
2023/12/10 10:27:20;;;;;;;1.83;1.70;;;10.00;99.90;;;;;;5036641;28;20217;-90
2023/12/10 10:29:48;;;;;;;0.20;0.20;;;10.00;99.90;;;;;;5036086;28;20185;-88
2023/12/10 10:32:18;;;;;;;2.10;0.87;;;9.90;99.90;;;;;;5036261;28;20181;-89
2023/12/10 10:34:45;;;;;;;1.60;0.83;;;9.70;99.90;;;;;;5036207;28;20225;-91
2023/12/10 10:37:11;;;;;;;15.97;2.13;;;9.70;99.90;;;;;;5019905;28;20218;-89
2023/12/10 10:39:37;;;;;;;1.23;1.23;;;9.70;99.90;;;;;;5036267;28;20213;-92
2023/12/10 10:42:08;;;;;;;6.37;2.87;;;9.80;99.90;;;;;;5019358;28;20221;-91
2023/12/10 10:44:36;;;;;;;0.37;0.37;;;9.60;99.90;;;;;;5020702;28;20249;-89
2023/12/10 10:47:04;;;;;;;1.43;0.70;;;9.70;99.90;;;;;;5036380;28;20221;-91
2023/12/10 10:49:32;;;;;;;2.17;0.80;;;9.80;99.90;;;;;;5041736;28;20210;-89
2023/12/10 10:52:01;;;;;;;1.03;0.90;;;9.70;99.90;;;;;;5033245;28;20204;-92
2023/12/10 10:54:33;;;;;;;0.97;0.87;;;9.70;99.90;;;;;;5046711;28;20250;-90
2023/12/10 10:56:59;;;;;;;3.00;2.80;;;9.70;99.90;;;;;;5053067;28;20178;-90
2023/12/10 10:59:32;;;;;;;1.03;0.97;;;9.80;99.90;;;;;;5052575;28;20174;-92
2023/12/10 11:02:04;;;;;;;11.33;1.73;;;9.70;99.90;;;;;;5034941;28;20661;-91
2023/12/10 11:04:40;;;;;;;1.10;0.50;;;9.70;99.90;;;;;;5035668;28;20268;-90
2023/12/10 11:07:06;;;;;;;5.03;1.33;;;9.70;99.90;;;;;;5019278;28;20381;-90
2023/12/10 11:09:59;;;;;;;1.30;0.63;;;9.70;99.90;;;;;;5035499;28;20241;-90
2023/12/10 11:12:44;;;;;;;0.50;0.50;;;9.70;99.90;;;;;;5052818;28;20236;-92
2023/12/10 11:15:13;;;;;;;0.20;0.20;;;9.80;99.90;;;;;;5035312;28;20280;-92
2023/12/10 11:17:59;;;;;;;2.97;2.73;;;9.70;99.90;;;;;;5053154;28;20646;-91
2023/12/10 11:20:43;;;;;;;1.57;1.50;;;9.80;99.90;;;;;;5053276;28;20222;-90
2023/12/10 11:23:17;;;;;;;2.23;0.87;;;9.80;99.90;;;;;;5036107;28;20272;-91
2023/12/10 11:25:43;;;;;;;2.43;2.33;;;10.00;99.90;;;;;;5055526;28;20228;-88
2023/12/10 11:28:17;;;;;;;6.70;1.40;;;10.00;99.90;;;;;;5039100;28;20242;-89
2023/12/10 11:30:45;;;;;;;0.57;0.57;;;10.00;99.90;;;;;;5023719;28;20210;-88
2023/12/10 11:33:13;;;;;;;4.53;2.30;;;10.10;99.90;;;;;;5023093;28;20205;-88
2023/12/10 11:35:40;;;;;;;0.87;0.80;;;10.10;99.90;;;;;;5039669;28;20206;-87
2023/12/10 11:38:06;;;;;;;4.23;1.17;;;10.00;99.90;;;;;;5035418;28;20219;-87
2023/12/10 11:40:33;;;;;;;0.30;0.30;;;10.00;99.90;;;;;;5036147;28;20214;-86
2023/12/10 11:43:06;;;;;;;0.87;0.70;;;9.90;99.90;;;;;;5019065;28;20222;-89
2023/12/10 11:45:33;;;;;;;0.30;0.30;;;9.90;99.90;;;;;;5036130;28;20217;-88
2023/12/10 11:47:59;;;;;;;3.00;2.83;;;9.90;99.90;;;;;;5035399;28;20183;-89
2023/12/10 11:50:25;;;;;;;0.40;0.27;;;9.80;99.90;;;;;;5019735;28;20187;-87
2023/12/10 11:52:51;;;;;;;2.57;1.33;;;9.80;99.90;;;;;;5018999;28;20270;-91
2023/12/10 11:55:17;;;;;;;12.97;2.23;;;9.90;99.90;;;;;;5002450;28;20309;-89
2023/12/10 11:57:46;;;;;;;8.87;1.33;;;9.80;99.90;;;;;;5035314;28;20214;-90
2023/12/10 12:00:13;;;;;;;25.40;1.77;;;9.90;99.90;;;;;;5051837;28;20215;-90
2023/12/10 12:02:46;;;;;;;1.97;1.03;;;9.80;99.90;;;;;;5036353;28;20214;-91
2023/12/10 12:05:14;;;;;;;4.70;0.93;;;9.80;99.90;;;;;;5035973;28;20210;-91
2023/12/10 12:07:41;;;;;;;1.97;1.37;;;9.90;99.90;;;;;;5035789;28;20242;-90
2023/12/10 12:10:08;;;;;;;2.03;1.87;;;9.80;99.90;;;;;;5018445;28;20229;-90
2023/12/10 12:12:39;;;;;;;6.10;1.50;;;9.90;99.90;;;;;;5034945;28;20234;-90
2023/12/10 12:15:06;;;;;;;1.17;0.63;;;9.90;99.90;;;;;;5036039;28;20301;-91
2023/12/10 12:17:32;;;;;;;1.47;0.97;;;9.90;99.90;;;;;;5019591;28;20182;-90
2023/12/10 12:20:18;;;;;;;2.40;2.13;;;9.90;99.90;;;;;;5035433;28;20214;-92
2023/12/10 12:22:44;;;;;;;2.70;1.13;;;10.00;99.90;;;;;;5035234;28;20217;-92
2023/12/10 12:25:10;;;;;;;0.40;0.40;;;10.00;99.90;;;;;;5035480;28;20589;-90
2023/12/10 12:27:36;;;;;;;6.40;1.17;;;9.90;99.90;;;;;;5002260;28;20290;-90
2023/12/10 12:30:02;;;;;;;5.53;1.57;;;9.90;99.90;;;;;;5018199;28;20608;-91
2023/12/10 12:32:28;;;;;;;3.73;2.33;;;9.90;99.90;;;;;;5035343;28;20244;-90
2023/12/10 12:34:54;;;;;;;0.50;0.50;;;10.00;99.90;;;;;;5017919;28;20748;-92
2023/12/10 12:37:20;;;;;;;2.03;1.27;;;10.00;99.90;;;;;;5017498;28;20349;-92
2023/12/10 12:39:45;;;;;;;3.03;1.53;;;10.00;99.90;;;;;;5018480;28;20333;-91
2023/12/10 12:42:11;;;;;;;1.30;1.03;;;10.00;99.90;;;;;;5034770;28;20671;-91
2023/12/10 12:44:40;;;;;;;0.30;0.30;;;10.10;99.90;;;;;;5002653;28;20622;-89
2023/12/10 12:47:05;;;;;;;0.80;0.80;;;10.00;99.90;;;;;;5034738;28;20610;-91
2023/12/10 12:49:31;;;;;;;5.20;1.77;;;10.00;99.90;;;;;;5034374;28;20218;-92
2023/12/10 12:51:57;;;;;;;12.90;0.83;;;10.10;99.90;;;;;;5018050;28;20223;-91
2023/12/10 12:54:23;;;;;;;2.87;1.57;;;10.10;99.90;;;;;;5034531;28;20687;-92